aviador You're here:

PAOM Decoded Metar

NOME in AK, USA
Report Time2018-07-22 13:53:00
UTC Time2018-07-22 14:08:45
Flight Rules mvfr MVFR
Wind090° at 07 kt
W.Decomp.*RWY 10: 6.4 kt HW 2.8 kt LCW
RWY 03: 4.9 kt HW 5.0 kt RCW
W.Rank090° ranks 5
Current wind is below 090° avg. (10.8)
Visibility9999 m
Phenomena:Light Rain
Clouds:Overcast 023 Hf
Ceiling2,300 ft
Temp13°C (ISA -2)
Dew Point13°C (100% RH)
AAT11.4°C
QNH1019 hPa
Density Alt-197 ft
Elevation36 ft
Report Wrong Elevation
Raw Report
PAOM 221353Z AUTO 09007KT 7SM -RA OVC023 13/13 A3009 RMK AO2 RAB43
SLP188 P0000 T01330133 TSNO=

Extra information for PAOM:More info

Metar Taf Metar & Taf Last 4 Metars F.Rules Stats Wind Profile Meteogram Temp Stats Airport Information Weather charts Add Link Nearby VenuesMetar ALERT Operation Metar Decoded Social comments

AIRNAV info for PAOM